Time;durP1;ratioP1;P1;durP2;ratioP2;P2;SDS_P1;SDS_P2;PMS_P1;PMS_P2;Temp;Humidity;BMP_temperature;BMP_pressure;BME280_temperature;BME280_humidity;BME280_pressure;Samples;Min_cycle;Max_cycle;Signal;HPM_P1;HPM_P2
2022/07/09 00:02:16;;;;;;;;;;;;;;;;;;5011035;28;1293;-71
2022/07/09 00:04:42;;;;;;;;;;;;;;;;;;5011418;28;779;-70
2022/07/09 00:07:08;;;;;;;;;;;;;;;;;;5024531;28;1915;-71
2022/07/09 00:09:36;;;;;;;;;;;;;;;;;;5016346;28;1194;-71
2022/07/09 00:12:02;;;;;;;;;;;;;;;;;;5010934;28;1380;-70
2022/07/09 00:14:30;;;;;;;;;;;;;;;;;;5016746;28;1470;-71
2022/07/09 00:16:56;;;;;;;;;;;;;;;;;;5020637;28;1127;-70
2022/07/09 00:19:22;;;;;;;;;;;;;;;;;;5011083;28;1218;-71
2022/07/09 00:21:48;;;;;;;;;;;;;;;;;;5011003;28;834;-70
2022/07/09 00:24:15;;;;;;;;;;;;;;;;;;5014582;28;1511;-71
2022/07/09 00:26:42;;;;;;;;;;;;;;;;;;5031094;28;1966;-71
2022/07/09 00:29:08;;;;;;;;;;;;;;;;;;5011889;28;1209;-71
2022/07/09 00:31:34;;;;;;;;;;;;;;;;;;5011165;28;997;-71
2022/07/09 00:34:01;;;;;;;;;;;;;;;;;;5010829;28;1486;-72
2022/07/09 00:36:27;;;;;;;;;;;;;;;;;;5012733;28;1368;-70
2022/07/09 00:38:53;;;;;;;;;;;;;;;;;;5020749;28;1393;-71
2022/07/09 00:41:19;;;;;;;;;;;;;;;;;;5030955;28;929;-72
2022/07/09 00:43:50;;;;;;;;;;;;;;;;;;5030487;28;1309;-71
2022/07/09 00:46:17;;;;;;;;;;;;;;;;;;5029272;28;1463;-71
2022/07/09 00:48:43;;;;;;;;;;;;;;;;;;5014589;28;1131;-71
2022/07/09 00:51:10;;;;;;;;;;;;;;;;;;5010739;28;1095;-72
2022/07/09 00:53:36;;;;;;;;;;;;;;;;;;5027556;28;1427;-72
2022/07/09 00:56:02;;;;;;;;;;;;;;;;;;5011098;28;1215;-70
2022/07/09 00:58:29;;;;;;;;;;;;;;;;;;5010190;28;1044;-72
2022/07/09 01:00:56;;;;;;;;;;;;;;;;;;5010525;28;1052;-71
2022/07/09 01:03:22;;;;;;;;;;;;;;;;;;5028485;28;1494;-72
2022/07/09 01:05:49;;;;;;;;;;;;;;;;;;5016033;28;1139;-71
2022/07/09 01:08:15;;;;;;;;;;;;;;;;;;5013394;28;1980;-70
2022/07/09 01:10:41;;;;;;;;;;;;;;;;;;5012449;28;1276;-71
2022/07/09 01:13:08;;;;;;;;;;;;;;;;;;5012605;28;1329;-70
2022/07/09 01:15:34;;;;;;;;;;;;;;;;;;5024034;28;1882;-70
2022/07/09 01:18:01;;;;;;;;;;;;;;;;;;5032726;28;1139;-72
2022/07/09 01:20:29;;;;;;;;;;;;;;;;;;5032826;28;1395;-71
2022/07/09 01:22:56;;;;;;;;;;;;;;;;;;5033453;28;1483;-71
2022/07/09 01:25:26;;;;;;;;;;;;;;;;;;5032119;28;1028;-71
2022/07/09 01:27:52;;;;;;;;;;;;;;;;;;5031443;28;1911;-72
2022/07/09 01:30:28;;;;;;;;;;;;;;;;;;5032170;28;1408;-71
2022/07/09 01:32:54;;;;;;;;;;;;;;;;;;5031945;28;1491;-72
2022/07/09 01:35:21;;;;;;;;;;;;;;;;;;5013655;28;1029;-71
2022/07/09 01:37:48;;;;;;;;;;;;;;;;;;5013025;28;1116;-70
2022/07/09 01:40:14;;;;;;;;;;;;;;;;;;5013928;28;859;-71
2022/07/09 01:42:41;;;;;;;;;;;;;;;;;;5020445;28;1519;-72
2022/07/09 01:45:07;;;;;;;;;;;;;;;;;;5025239;28;1178;-73
2022/07/09 01:47:33;;;;;;;;;;;;;;;;;;5031717;28;1910;-72
2022/07/09 01:49:59;;;;;;;;;;;;;;;;;;5015046;28;1158;-70
2022/07/09 01:52:26;;;;;;;;;;;;;;;;;;5012128;28;1396;-71
2022/07/09 01:54:53;;;;;;;;;;;;;;;;;;5023207;28;1360;-71
2022/07/09 01:57:19;;;;;;;;;;;;;;;;;;5019972;28;1202;-70
2022/07/09 01:59:45;;;;;;;;;;;;;;;;;;5013349;28;972;-72
2022/07/09 02:02:12;;;;;;;;;;;;;;;;;;5013241;28;1322;-71
2022/07/09 02:04:38;;;;;;;;;;;;;;;;;;5012000;28;1089;-73
2022/07/09 02:07:05;;;;;;;;;;;;;;;;;;5022651;28;1922;-73
2022/07/09 02:09:31;;;;;;;;;;;;;;;;;;5027990;28;1340;-71
2022/07/09 02:11:58;;;;;;;;;;;;;;;;;;5021618;28;1324;-71
2022/07/09 02:14:24;;;;;;;;;;;;;;;;;;5012413;28;1119;-71
2022/07/09 02:16:51;;;;;;;;;;;;;;;;;;5011908;28;763;-72
2022/07/09 02:19:17;;;;;;;;;;;;;;;;;;5023389;28;1391;-72
2022/07/09 02:21:43;;;;;;;;;;;;;;;;;;5028436;28;1131;-71
2022/07/09 02:24:09;;;;;;;;;;;;;;;;;;5032111;28;1310;-72
2022/07/09 02:26:35;;;;;;;;;;;;;;;;;;5030270;28;1220;-71
2022/07/09 02:29:04;;;;;;;;;;;;;;;;;;5021582;28;1983;-71
2022/07/09 02:31:30;;;;;;;;;;;;;;;;;;5023351;28;1241;-72
2022/07/09 02:33:56;;;;;;;;;;;;;;;;;;5023808;28;1412;-70
2022/07/09 02:36:23;;;;;;;;;;;;;;;;;;5031285;28;739;-71
2022/07/09 02:38:49;;;;;;;;;;;;;;;;;;5029742;28;1424;-70
2022/07/09 02:41:15;;;;;;;;;;;;;;;;;;5019942;28;1182;-70
2022/07/09 02:43:42;;;;;;;;;;;;;;;;;;5012122;28;1388;-72
2022/07/09 02:46:10;;;;;;;;;;;;;;;;;;5015859;28;1511;-70
2022/07/09 02:48:36;;;;;;;;;;;;;;;;;;5031566;28;1922;-71
2022/07/09 02:51:03;;;;;;;;;;;;;;;;;;5013719;28;1213;-71
2022/07/09 02:53:29;;;;;;;;;;;;;;;;;;5010966;28;1399;-72
2022/07/09 02:55:55;;;;;;;;;;;;;;;;;;5025938;28;1419;-71
2022/07/09 02:58:21;;;;;;;;;;;;;;;;;;5018336;28;1139;-71
2022/07/09 03:00:48;;;;;;;;;;;;;;;;;;5012212;28;905;-72
2022/07/09 03:03:16;;;;;;;;;;;;;;;;;;5011962;28;1391;-70
2022/07/09 03:05:43;;;;;;;;;;;;;;;;;;5016026;28;1431;-72
2022/07/09 03:08:09;;;;;;;;;;;;;;;;;;5029402;28;1979;-72
2022/07/09 03:10:35;;;;;;;;;;;;;;;;;;5025132;28;1170;-71
2022/07/09 03:13:02;;;;;;;;;;;;;;;;;;5011840;28;1329;-72
2022/07/09 03:15:28;;;;;;;;;;;;;;;;;;5012112;28;965;-72
2022/07/09 03:17:54;;;;;;;;;;;;;;;;;;5025058;28;1398;-72
2022/07/09 03:20:21;;;;;;;;;;;;;;;;;;5018872;28;1409;-72
2022/07/09 03:22:47;;;;;;;;;;;;;;;;;;5011600;28;1303;-72
2022/07/09 03:25:14;;;;;;;;;;;;;;;;;;5009654;28;1176;-72
2022/07/09 03:27:40;;;;;;;;;;;;;;;;;;5009612;28;1947;-73
2022/07/09 03:30:07;;;;;;;;;;;;;;;;;;5018050;28;1404;-72
2022/07/09 03:32:33;;;;;;;;;;;;;;;;;;5030602;28;2126;-72
2022/07/09 03:34:59;;;;;;;;;;;;;;;;;;5013023;28;1401;-71
2022/07/09 03:37:26;;;;;;;;;;;;;;;;;;5010630;28;1072;-72
2022/07/09 03:39:53;;;;;;;;;;;;;;;;;;5010157;28;1263;-72
2022/07/09 03:42:19;;;;;;;;;;;;;;;;;;5019449;28;1490;-72
2022/07/09 03:44:45;;;;;;;;;;;;;;;;;;5031232;28;1182;-72
2022/07/09 03:47:11;;;;;;;;;;;;;;;;;;5030163;28;775;-72
2022/07/09 03:49:37;;;;;;;;;;;;;;;;;;5030979;28;1977;-73
2022/07/09 03:52:04;;;;;;;;;;;;;;;;;;5029019;28;1470;-70
2022/07/09 03:54:31;;;;;;;;;;;;;;;;;;5016986;28;1154;-72
2022/07/09 03:56:57;;;;;;;;;;;;;;;;;;5010623;28;1052;-71
2022/07/09 03:59:24;;;;;;;;;;;;;;;;;;5017862;28;1388;-72
2022/07/09 04:01:50;;;;;;;;;;;;;;;;;;5022620;28;1183;-70
2022/07/09 04:04:16;;;;;;;;;;;;;;;;;;5011187;28;1309;-71
2022/07/09 04:06:42;;;;;;;;;;;;;;;;;;5009497;28;1251;-72
2022/07/09 04:09:08;;;;;;;;;;;;;;;;;;5015256;28;1970;-70
2022/07/09 04:11:36;;;;;;;;;;;;;;;;;;5030211;28;1396;-72
2022/07/09 04:14:02;;;;;;;;;;;;;;;;;;5012689;28;1398;-72
2022/07/09 04:16:28;;;;;;;;;;;;;;;;;;5009500;28;1251;-72
2022/07/09 04:18:55;;;;;;;;;;;;;;;;;;5011378;28;827;-72
2022/07/09 04:21:22;;;;;;;;;;;;;;;;;;5016595;28;1452;-72
2022/07/09 04:23:48;;;;;;;;;;;;;;;;;;5030691;28;1502;-72
2022/07/09 04:26:14;;;;;;;;;;;;;;;;;;5026979;28;1392;-72
2022/07/09 04:28:42;;;;;;;;;;;;;;;;;;5037908;28;1973;-72
2022/07/09 04:31:08;;;;;;;;;;;;;;;;;;5028652;28;1357;-71
2022/07/09 04:33:35;;;;;;;;;;;;;;;;;;5022039;28;1498;-71
2022/07/09 04:36:01;;;;;;;;;;;;;;;;;;5027761;28;1364;-72
2022/07/09 04:38:27;;;;;;;;;;;;;;;;;;5020159;28;1244;-73
2022/07/09 04:40:54;;;;;;;;;;;;;;;;;;5026903;28;1510;-72
2022/07/09 04:43:20;;;;;;;;;;;;;;;;;;5033291;28;1456;-71
2022/07/09 04:45:48;;;;;;;;;;;;;;;;;;5029499;28;1332;-71
2022/07/09 04:48:14;;;;;;;;;;;;;;;;;;5027321;28;1969;-70
2022/07/09 04:50:40;;;;;;;;;;;;;;;;;;5026929;28;1245;-71
2022/07/09 04:53:06;;;;;;;;;;;;;;;;;;5018047;28;1422;-71
2022/07/09 04:55:33;;;;;;;;;;;;;;;;;;5025548;28;1607;-71
2022/07/09 04:57:59;;;;;;;;;;;;;;;;;;5025918;28;1218;-72
2022/07/09 05:00:25;;;;;;;;;;;;;;;;;;5024602;28;1297;-71
2022/07/09 05:02:53;;;;;;;;;;;;;;;;;;5022498;28;1479;-71
2022/07/09 05:05:22;;;;;;;;;;;;;;;;;;5023314;28;1307;-72
2022/07/09 05:07:48;;;;;;;;;;;;;;;;;;5023643;28;1918;-70
2022/07/09 05:10:14;;;;;;;;;;;;;;;;;;5023051;28;1216;-69
2022/07/09 05:12:40;;;;;;;;;;;;;;;;;;5023169;28;1401;-71
2022/07/09 05:15:07;;;;;;;;;;;;;;;;;;5023346;28;1217;-72
2022/07/09 05:17:34;;;;;;;;;;;;;;;;;;5037434;28;1251;-71
2022/07/09 05:20:03;;;;;;;;;;;;;;;;;;5023169;28;1428;-71
2022/07/09 05:22:29;;;;;;;;;;;;;;;;;;5020960;28;1504;-72
2022/07/09 05:24:55;;;;;;;;;;;;;;;;;;5023822;28;1339;-70
2022/07/09 05:27:22;;;;;;;;;;;;;;;;;;5023638;28;1458;-71
2022/07/09 05:29:48;;;;;;;;;;;;;;;;;;5033673;28;1985;-71
2022/07/09 05:32:14;;;;;;;;;;;;;;;;;;5033208;28;1318;-71
2022/07/09 05:34:40;;;;;;;;;;;;;;;;;;5032359;28;1161;-71
2022/07/09 05:37:08;;;;;;;;;;;;;;;;;;5032683;28;1064;-71
2022/07/09 05:39:34;;;;;;;;;;;;;;;;;;5031896;28;1240;-71
2022/07/09 05:42:00;;;;;;;;;;;;;;;;;;5031403;28;1406;-71
2022/07/09 05:44:26;;;;;;;;;;;;;;;;;;4994206;28;1491;-73
2022/07/09 05:46:53;;;;;;;;;;;;;;;;;;4952187;28;886;-74
2022/07/09 05:49:19;;;;;;;;;;;;;;;;;;4946465;28;1939;-74
2022/07/09 05:51:46;;;;;;;;;;;;;;;;;;4960992;28;1179;-74
2022/07/09 05:54:14;;;;;;;;;;;;;;;;;;4959388;28;1432;-73
2022/07/09 05:56:41;;;;;;;;;;;;;;;;;;4959551;28;1000;-74
2022/07/09 05:59:07;;;;;;;;;;;;;;;;;;4963187;28;814;-74
2022/07/09 06:01:38;;;;;;;;;;;;;;;;;;4964042;28;937;-73
2022/07/09 06:04:05;;;;;;;;;;;;;;;;;;4963921;28;1599;-74
2022/07/09 06:06:31;;;;;;;;;;;;;;;;;;4966881;28;901;-74
2022/07/09 06:08:58;;;;;;;;;;;;;;;;;;4967251;28;2005;-73
2022/07/09 06:11:26;;;;;;;;;;;;;;;;;;4965882;28;1473;-73
2022/07/09 06:13:52;;;;;;;;;;;;;;;;;;4962234;28;1629;-74
2022/07/09 06:16:18;;;;;;;;;;;;;;;;;;4977187;28;1047;-71
2022/07/09 06:18:45;;;;;;;;;;;;;;;;;;5027735;28;1123;-74
2022/07/09 06:21:11;;;;;;;;;;;;;;;;;;5029232;28;1356;-73
2022/07/09 06:23:37;;;;;;;;;;;;;;;;;;5032081;28;1488;-72
2022/07/09 06:26:03;;;;;;;;;;;;;;;;;;5032481;28;975;-71
2022/07/09 06:28:31;;;;;;;;;;;;;;;;;;5032821;28;1938;-72
2022/07/09 06:30:57;;;;;;;;;;;;;;;;;;5032460;28;932;-71
2022/07/09 06:33:23;;;;;;;;;;;;;;;;;;5032193;28;1325;-72
2022/07/09 06:35:49;;;;;;;;;;;;;;;;;;5029805;28;1472;-71
2022/07/09 06:38:15;;;;;;;;;;;;;;;;;;5023764;28;1143;-69
2022/07/09 06:40:42;;;;;;;;;;;;;;;;;;5032156;28;817;-71
2022/07/09 06:43:09;;;;;;;;;;;;;;;;;;5026386;28;1476;-71
2022/07/09 06:45:44;;;;;;;;;;;;;;;;;;5029757;28;1723;-71
2022/07/09 06:48:10;;;;;;;;;;;;;;;;;;5019637;28;1182;-70
2022/07/09 06:50:37;;;;;;;;;;;;;;;;;;5027353;28;1915;-70
2022/07/09 06:53:04;;;;;;;;;;;;;;;;;;5030154;28;1390;-71
2022/07/09 06:55:30;;;;;;;;;;;;;;;;;;5031741;28;1103;-71
2022/07/09 06:57:57;;;;;;;;;;;;;;;;;;5016924;28;1380;-71
2022/07/09 07:00:23;;;;;;;;;;;;;;;;;;5023265;28;1479;-69
2022/07/09 07:02:51;;;;;;;;;;;;;;;;;;5042940;28;1427;-70
2022/07/09 07:05:17;;;;;;;;;;;;;;;;;;5030860;28;1286;-69
2022/07/09 07:07:43;;;;;;;;;;;;;;;;;;5037824;28;1624;-69
2022/07/09 07:10:10;;;;;;;;;;;;;;;;;;5021890;28;1914;-70
2022/07/09 07:12:37;;;;;;;;;;;;;;;;;;5029628;28;1417;-71
2022/07/09 07:15:03;;;;;;;;;;;;;;;;;;5021220;28;1210;-71
2022/07/09 07:17:30;;;;;;;;;;;;;;;;;;5011192;28;941;-70
2022/07/09 07:19:57;;;;;;;;;;;;;;;;;;5011883;28;968;-70
2022/07/09 07:22:23;;;;;;;;;;;;;;;;;;5011648;28;1361;-71
2022/07/09 07:24:49;;;;;;;;;;;;;;;;;;5011772;28;1168;-68
2022/07/09 07:27:16;;;;;;;;;;;;;;;;;;5009529;28;1161;-69
2022/07/09 07:29:42;;;;;;;;;;;;;;;;;;5011773;28;1968;-71
2022/07/09 07:32:09;;;;;;;;;;;;;;;;;;5011640;28;1292;-68
2022/07/09 07:34:35;;;;;;;;;;;;;;;;;;5010471;28;1225;-69
2022/07/09 07:37:02;;;;;;;;;;;;;;;;;;5010996;28;937;-69
2022/07/09 07:39:29;;;;;;;;;;;;;;;;;;5011645;28;945;-69
2022/07/09 07:41:56;;;;;;;;;;;;;;;;;;5011564;28;1013;-69
2022/07/09 07:44:22;;;;;;;;;;;;;;;;;;5011443;28;1402;-70
2022/07/09 07:46:49;;;;;;;;;;;;;;;;;;5011072;28;723;-69
2022/07/09 07:49:15;;;;;;;;;;;;;;;;;;5011454;28;1914;-69
2022/07/09 07:51:42;;;;;;;;;;;;;;;;;;5011790;28;937;-69
2022/07/09 07:54:10;;;;;;;;;;;;;;;;;;5011403;28;1287;-69
2022/07/09 07:56:38;;;;;;;;;;;;;;;;;;5010898;28;1115;-69
2022/07/09 07:59:04;;;;;;;;;;;;;;;;;;5011396;28;961;-68
2022/07/09 08:01:30;;;;;;;;;;;;;;;;;;5011628;28;1076;-70
2022/07/09 08:03:56;;;;;;;;;;;;;;;;;;5011341;28;1400;-69
2022/07/09 08:06:23;;;;;;;;;;;;;;;;;;5010698;28;795;-69
2022/07/09 08:08:49;;;;;;;;;;;;;;;;;;5011097;28;1944;-69
2022/07/09 08:11:17;;;;;;;;;;;;;;;;;;5012931;28;809;-69
2022/07/09 08:13:43;;;;;;;;;;;;;;;;;;5014078;28;1396;-68
2022/07/09 08:16:09;;;;;;;;;;;;;;;;;;5020543;28;1402;-68
2022/07/09 08:18:35;;;;;;;;;;;;;;;;;;5035191;28;886;-68
2022/07/09 08:21:02;;;;;;;;;;;;;;;;;;5035090;28;1084;-69
2022/07/09 08:23:28;;;;;;;;;;;;;;;;;;5033650;28;1531;-70
2022/07/09 08:25:54;;;;;;;;;;;;;;;;;;5033616;28;1273;-70
2022/07/09 08:28:22;;;;;;;;;;;;;;;;;;5033912;28;993;-69
2022/07/09 08:30:48;;;;;;;;;;;;;;;;;;5027457;28;2082;-69
2022/07/09 08:33:14;;;;;;;;;;;;;;;;;;5030956;28;1392;-69
2022/07/09 08:35:40;;;;;;;;;;;;;;;;;;5029856;28;1257;-70
2022/07/09 08:38:06;;;;;;;;;;;;;;;;;;5032741;28;1144;-69
2022/07/09 08:40:33;;;;;;;;;;;;;;;;;;5034595;28;1075;-70
2022/07/09 08:42:59;;;;;;;;;;;;;;;;;;5034592;28;1302;-71
2022/07/09 08:45:26;;;;;;;;;;;;;;;;;;5034612;28;929;-70
2022/07/09 08:47:52;;;;;;;;;;;;;;;;;;5033948;28;988;-70
2022/07/09 08:50:20;;;;;;;;;;;;;;;;;;5035184;28;1972;-71
2022/07/09 08:52:46;;;;;;;;;;;;;;;;;;5034697;28;1318;-69
2022/07/09 08:55:12;;;;;;;;;;;;;;;;;;5034569;28;1115;-71
2022/07/09 08:57:38;;;;;;;;;;;;;;;;;;5033434;28;1102;-70
2022/07/09 09:00:05;;;;;;;;;;;;;;;;;;5039910;28;1524;-70
2022/07/09 09:02:37;;;;;;;;;;;;;;;;;;5027759;28;1468;-69
2022/07/09 09:05:06;;;;;;;;;;;;;;;;;;5024229;28;1201;-70
2022/07/09 09:07:33;;;;;;;;;;;;;;;;;;5019710;28;1159;-68
2022/07/09 09:09:59;;;;;;;;;;;;;;;;;;5014212;28;1971;-69
2022/07/09 09:12:27;;;;;;;;;;;;;;;;;;5013998;28;1310;-69
2022/07/09 09:14:53;;;;;;;;;;;;;;;;;;5013722;28;767;-69
2022/07/09 09:17:19;;;;;;;;;;;;;;;;;;5012919;28;897;-67
2022/07/09 09:19:47;;;;;;;;;;;;;;;;;;5013888;28;969;-68
2022/07/09 09:22:15;;;;;;;;;;;;;;;;;;5012823;28;1364;-68
2022/07/09 09:24:42;;;;;;;;;;;;;;;;;;5013860;28;858;-69
2022/07/09 09:27:08;;;;;;;;;;;;;;;;;;5013266;28;1060;-69
2022/07/09 09:29:39;;;;;;;;;;;;;;;;;;5013862;28;1976;-69
2022/07/09 09:32:09;;;;;;;;;;;;;;;;;;5013540;28;1334;-68
2022/07/09 09:34:36;;;;;;;;;;;;;;;;;;5012368;28;1570;-69
2022/07/09 09:37:03;;;;;;;;;;;;;;;;;;5013021;28;982;-69
2022/07/09 09:39:30;;;;;;;;;;;;;;;;;;5012358;28;1133;-71
2022/07/09 09:41:56;;;;;;;;;;;;;;;;;;5012122;28;1137;-69
2022/07/09 09:44:25;;;;;;;;;;;;;;;;;;5013452;28;1407;-69
2022/07/09 09:46:52;;;;;;;;;;;;;;;;;;5012931;28;988;-69
2022/07/09 09:49:18;;;;;;;;;;;;;;;;;;5013305;28;1918;-71
2022/07/09 09:51:51;;;;;;;;;;;;;;;;;;5013547;28;814;-71
2022/07/09 09:54:19;;;;;;;;;;;;;;;;;;5013347;28;1334;-71
2022/07/09 09:56:45;;;;;;;;;;;;;;;;;;5012604;28;1116;-69
2022/07/09 09:59:12;;;;;;;;;;;;;;;;;;5013442;28;791;-70
2022/07/09 10:01:38;;;;;;;;;;;;;;;;;;5011897;28;1134;-71
2022/07/09 10:04:05;;;;;;;;;;;;;;;;;;5013122;28;1324;-68
2022/07/09 10:06:31;;;;;;;;;;;;;;;;;;5012333;28;776;-69
2022/07/09 10:08:57;;;;;;;;;;;;;;;;;;5013303;28;877;-71
2022/07/09 10:11:25;;;;;;;;;;;;;;;;;;5012873;28;1982;-69
2022/07/09 10:13:52;;;;;;;;;;;;;;;;;;5011889;28;1393;-71
2022/07/09 10:16:18;;;;;;;;;;;;;;;;;;5012403;28;1055;-70
2022/07/09 10:18:51;;;;;;;;;;;;;;;;;;5013005;28;1060;-71
2022/07/09 10:21:17;;;;;;;;;;;;;;;;;;5012886;28;1407;-68
2022/07/09 10:23:49;;;;;;;;;;;;;;;;;;5022440;28;1598;-71
2022/07/09 10:26:15;;;;;;;;;;;;;;;;;;5031800;28;1603;-70
2022/07/09 10:28:42;;;;;;;;;;;;;;;;;;5029548;28;1376;-71
2022/07/09 10:31:09;;;;;;;;;;;;;;;;;;5031722;28;1977;-69
2022/07/09 10:33:35;;;;;;;;;;;;;;;;;;5024259;28;1501;-69
2022/07/09 10:36:10;;;;;;;;;;;;;;;;;;5024437;28;1431;-69
2022/07/09 10:38:38;;;;;;;;;;;;;;;;;;5030324;28;1392;-69
2022/07/09 10:41:06;;;;;;;;;;;;;;;;;;5031931;28;1456;-71
2022/07/09 10:43:39;;;;;;;;;;;;;;;;;;5030120;28;1566;-72
2022/07/09 10:46:11;;;;;;;;;;;;;;;;;;5031435;28;1127;-69
2022/07/09 10:48:37;;;;;;;;;;;;;;;;;;5023791;28;1502;-72
2022/07/09 10:51:04;;;;;;;;;;;;;;;;;;5029148;28;1918;-70
2022/07/09 10:53:30;;;;;;;;;;;;;;;;;;5022883;28;1515;-72
2022/07/09 10:55:56;;;;;;;;;;;;;;;;;;5029421;28;1515;-71
2022/07/09 10:58:24;;;;;;;;;;;;;;;;;;5018073;28;1151;-71
2022/07/09 11:00:54;;;;;;;;;;;;;;;;;;5010937;28;1144;-71
2022/07/09 11:03:25;;;;;;;;;;;;;;;;;;5012006;28;1341;-69
2022/07/09 11:05:51;;;;;;;;;;;;;;;;;;5018966;28;1481;-71
2022/07/09 11:08:18;;;;;;;;;;;;;;;;;;5023411;28;1311;-71
2022/07/09 11:10:44;;;;;;;;;;;;;;;;;;5031352;28;1918;-71
2022/07/09 11:13:10;;;;;;;;;;;;;;;;;;5031491;28;1387;-71
2022/07/09 11:15:37;;;;;;;;;;;;;;;;;;5027943;28;1486;-71
2022/07/09 11:18:04;;;;;;;;;;;;;;;;;;5020889;28;1222;-70
2022/07/09 11:20:32;;;;;;;;;;;;;;;;;;5028100;28;1558;-70
2022/07/09 11:23:00;;;;;;;;;;;;;;;;;;5019726;28;1402;-71
2022/07/09 11:25:26;;;;;;;;;;;;;;;;;;5029353;28;1528;-71
2022/07/09 11:27:53;;;;;;;;;;;;;;;;;;5012068;28;1361;-69
2022/07/09 11:30:19;;;;;;;;;;;;;;;;;;5029726;28;1977;-71
2022/07/09 11:32:46;;;;;;;;;;;;;;;;;;5029428;28;1413;-71
2022/07/09 11:35:12;;;;;;;;;;;;;;;;;;5011533;28;1182;-72
2022/07/09 11:37:45;;;;;;;;;;;;;;;;;;5016855;28;1400;-71
2022/07/09 11:40:16;;;;;;;;;;;;;;;;;;4992571;28;1407;-70
2022/07/09 11:42:42;;;;;;;;;;;;;;;;;;5001658;28;1345;-70
2022/07/09 11:45:09;;;;;;;;;;;;;;;;;;4957048;28;924;-70
2022/07/09 11:47:37;;;;;;;;;;;;;;;;;;4954294;28;846;-70
2022/07/09 11:50:08;;;;;;;;;;;;;;;;;;4948125;28;2063;-68
2022/07/09 11:52:34;;;;;;;;;;;;;;;;;;4949362;28;1701;-71
2022/07/09 11:55:03;;;;;;;;;;;;;;;;;;4952652;28;1104;-70
2022/07/09 11:57:30;;;;;;;;;;;;;;;;;;4964958;28;1318;-70
2022/07/09 11:59:57;;;;;;;;;;;;;;;;;;5025838;28;1626;-71
2022/07/09 12:02:23;;;;;;;;;;;;;;;;;;5030374;28;1936;-71
2022/07/09 12:04:49;;;;;;;;;;;;;;;;;;5029309;28;1151;-71
2022/07/09 12:07:16;;;;;;;;;;;;;;;;;;5030087;28;1125;-71
2022/07/09 12:09:42;;;;;;;;;;;;;;;;;;5029340;28;1219;-71
2022/07/09 12:12:09;;;;;;;;;;;;;;;;;;5028473;28;1977;-72
2022/07/09 12:14:36;;;;;;;;;;;;;;;;;;5030658;28;1118;-72
2022/07/09 12:17:02;;;;;;;;;;;;;;;;;;5029538;28;1184;-72
2022/07/09 12:19:28;;;;;;;;;;;;;;;;;;5031065;28;937;-71
2022/07/09 12:21:54;;;;;;;;;;;;;;;;;;5029341;28;1133;-72
2022/07/09 12:24:21;;;;;;;;;;;;;;;;;;5029040;28;1511;-71
2022/07/09 12:26:47;;;;;;;;;;;;;;;;;;5028669;28;1397;-73
2022/07/09 12:29:14;;;;;;;;;;;;;;;;;;5030199;28;866;-72
2022/07/09 12:31:41;;;;;;;;;;;;;;;;;;5030211;28;1918;-72
2022/07/09 12:34:07;;;;;;;;;;;;;;;;;;5029134;28;1339;-73
2022/07/09 12:36:33;;;;;;;;;;;;;;;;;;5028751;28;1335;-71
2022/07/09 12:38:59;;;;;;;;;;;;;;;;;;5030446;28;917;-72
2022/07/09 12:41:25;;;;;;;;;;;;;;;;;;5029250;28;1230;-72
2022/07/09 12:43:51;;;;;;;;;;;;;;;;;;5029807;28;1499;-72
2022/07/09 12:46:19;;;;;;;;;;;;;;;;;;5029950;28;928;-72
2022/07/09 12:48:45;;;;;;;;;;;;;;;;;;5030330;28;999;-71
2022/07/09 12:51:11;;;;;;;;;;;;;;;;;;5030525;28;1914;-72
2022/07/09 12:53:37;;;;;;;;;;;;;;;;;;5030432;28;1400;-71
2022/07/09 12:56:04;;;;;;;;;;;;;;;;;;5026881;28;1550;-71
2022/07/09 12:58:30;;;;;;;;;;;;;;;;;;5027216;28;1308;-72
2022/07/09 13:00:57;;;;;;;;;;;;;;;;;;5032319;28;1178;-72
2022/07/09 13:03:25;;;;;;;;;;;;;;;;;;5015527;28;1493;-72
2022/07/09 13:05:52;;;;;;;;;;;;;;;;;;5022321;28;1420;-72
2022/07/09 13:08:19;;;;;;;;;;;;;;;;;;5025966;28;2120;-73
2022/07/09 13:10:45;;;;;;;;;;;;;;;;;;5033269;28;1910;-71
2022/07/09 13:13:12;;;;;;;;;;;;;;;;;;5030726;28;1432;-71
2022/07/09 13:15:38;;;;;;;;;;;;;;;;;;5023223;28;1308;-69
2022/07/09 13:18:04;;;;;;;;;;;;;;;;;;5026280;28;1530;-72
2022/07/09 13:20:32;;;;;;;;;;;;;;;;;;5033801;28;1278;-73
2022/07/09 13:22:58;;;;;;;;;;;;;;;;;;5025607;28;1505;-70
2022/07/09 13:25:24;;;;;;;;;;;;;;;;;;5032300;28;1056;-72
2022/07/09 13:27:50;;;;;;;;;;;;;;;;;;5033095;28;759;-72
2022/07/09 13:30:20;;;;;;;;;;;;;;;;;;5033525;28;878;-71
2022/07/09 13:32:46;;;;;;;;;;;;;;;;;;5023959;28;1895;-71
2022/07/09 13:35:13;;;;;;;;;;;;;;;;;;5033206;28;1326;-72
2022/07/09 13:37:40;;;;;;;;;;;;;;;;;;5031263;28;1128;-71
2022/07/09 13:40:07;;;;;;;;;;;;;;;;;;5033076;28;1390;-72
2022/07/09 13:42:33;;;;;;;;;;;;;;;;;;5025690;28;1480;-72
2022/07/09 13:45:00;;;;;;;;;;;;;;;;;;5029970;28;1416;-72
2022/07/09 13:47:26;;;;;;;;;;;;;;;;;;5018993;28;1115;-72
2022/07/09 13:49:52;;;;;;;;;;;;;;;;;;5023808;28;1476;-72
2022/07/09 13:52:18;;;;;;;;;;;;;;;;;;5030021;28;1925;-72
2022/07/09 13:54:46;;;;;;;;;;;;;;;;;;5029989;28;1733;-72
2022/07/09 13:57:13;;;;;;;;;;;;;;;;;;5017490;28;1372;-72
2022/07/09 13:59:39;;;;;;;;;;;;;;;;;;5013147;28;1128;-69
2022/07/09 14:02:05;;;;;;;;;;;;;;;;;;5012667;28;1535;-72
2022/07/09 14:04:31;;;;;;;;;;;;;;;;;;5031554;28;1773;-71
2022/07/09 14:06:57;;;;;;;;;;;;;;;;;;5023731;28;1118;-71
2022/07/09 14:09:24;;;;;;;;;;;;;;;;;;5031239;28;1459;-71
2022/07/09 14:11:51;;;;;;;;;;;;;;;;;;5028563;28;1918;-72
2022/07/09 14:14:17;;;;;;;;;;;;;;;;;;5028582;28;1314;-69
2022/07/09 14:16:43;;;;;;;;;;;;;;;;;;5016613;28;1432;-72
2022/07/09 14:19:10;;;;;;;;;;;;;;;;;;5023552;28;1583;-72
2022/07/09 14:21:36;;;;;;;;;;;;;;;;;;5024951;28;1404;-73
2022/07/09 14:24:02;;;;;;;;;;;;;;;;;;5030732;28;1364;-72
2022/07/09 14:26:28;;;;;;;;;;;;;;;;;;5025267;28;1471;-72
2022/07/09 14:28:56;;;;;;;;;;;;;;;;;;5034353;28;1817;-71
2022/07/09 14:31:22;;;;;;;;;;;;;;;;;;5028123;28;1903;-72
2022/07/09 14:33:48;;;;;;;;;;;;;;;;;;5047236;28;1388;-69
2022/07/09 14:36:14;;;;;;;;;;;;;;;;;;5029568;28;1408;-70
2022/07/09 14:38:40;;;;;;;;;;;;;;;;;;5030923;28;1288;-71
2022/07/09 14:41:06;;;;;;;;;;;;;;;;;;5030809;28;1454;-70
2022/07/09 14:43:33;;;;;;;;;;;;;;;;;;5017610;28;1416;-71
2022/07/09 14:46:00;;;;;;;;;;;;;;;;;;5021825;28;1571;-71
2022/07/09 14:48:26;;;;;;;;;;;;;;;;;;5030854;28;1307;-70
2022/07/09 14:50:53;;;;;;;;;;;;;;;;;;5022845;28;1919;-72
2022/07/09 14:53:19;;;;;;;;;;;;;;;;;;5012365;28;1283;-73
2022/07/09 14:55:45;;;;;;;;;;;;;;;;;;5012141;28;791;-72
2022/07/09 14:58:11;;;;;;;;;;;;;;;;;;5014092;28;1331;-73
2022/07/09 15:00:38;;;;;;;;;;;;;;;;;;5031884;28;1115;-73
2022/07/09 15:03:05;;;;;;;;;;;;;;;;;;5012846;28;1412;-72
2022/07/09 15:05:32;;;;;;;;;;;;;;;;;;5012103;28;1130;-73
2022/07/09 15:07:58;;;;;;;;;;;;;;;;;;5021474;28;1515;-72
2022/07/09 15:10:24;;;;;;;;;;;;;;;;;;5023577;28;1257;-72
2022/07/09 15:12:51;;;;;;;;;;;;;;;;;;5029850;28;1914;-72
2022/07/09 15:15:17;;;;;;;;;;;;;;;;;;5030281;28;1187;-72
2022/07/09 15:17:43;;;;;;;;;;;;;;;;;;5030938;28;1055;-69
2022/07/09 15:20:11;;;;;;;;;;;;;;;;;;5028388;28;1438;-69
2022/07/09 15:22:38;;;;;;;;;;;;;;;;;;5029458;28;1359;-73
2022/07/09 15:25:05;;;;;;;;;;;;;;;;;;5011406;28;1861;-73
2022/07/09 15:27:31;;;;;;;;;;;;;;;;;;5026127;28;1480;-73
2022/07/09 15:29:58;;;;;;;;;;;;;;;;;;5018538;28;1480;-72
2022/07/09 15:32:24;;;;;;;;;;;;;;;;;;5022040;28;1922;-69
2022/07/09 15:34:50;;;;;;;;;;;;;;;;;;5023115;28;1194;-72
2022/07/09 15:37:17;;;;;;;;;;;;;;;;;;5030450;28;1441;-73
2022/07/09 15:39:44;;;;;;;;;;;;;;;;;;5030129;28;1387;-73
2022/07/09 15:42:10;;;;;;;;;;;;;;;;;;5029327;28;1562;-72
2022/07/09 15:44:36;;;;;;;;;;;;;;;;;;5020485;28;1436;-72
2022/07/09 15:47:03;;;;;;;;;;;;;;;;;;5028024;28;1639;-73
2022/07/09 15:49:30;;;;;;;;;;;;;;;;;;5025366;28;1115;-72
2022/07/09 15:51:57;;;;;;;;;;;;;;;;;;5022893;28;1976;-71
2022/07/09 15:54:24;;;;;;;;;;;;;;;;;;5016715;28;1384;-69
2022/07/09 15:56:51;;;;;;;;;;;;;;;;;;5010141;28;740;-69
2022/07/09 15:59:17;;;;;;;;;;;;;;;;;;5009894;28;1248;-70
2022/07/09 16:01:44;;;;;;;;;;;;;;;;;;5009710;28;1273;-70
2022/07/09 16:04:10;;;;;;;;;;;;;;;;;;5022630;28;1356;-71
2022/07/09 16:06:36;;;;;;;;;;;;;;;;;;5022240;28;1372;-71
2022/07/09 16:09:02;;;;;;;;;;;;;;;;;;5020162;28;1091;-70
2022/07/09 16:14:14;;;;;;;;;;;;;;;;;;5026199;28;1760;-69
2022/07/09 16:16:40;;;;;;;;;;;;;;;;;;5027643;28;1324;-71
2022/07/09 16:19:06;;;;;;;;;;;;;;;;;;5022256;28;1134;-71
2022/07/09 16:21:32;;;;;;;;;;;;;;;;;;5028339;28;1316;-70
2022/07/09 16:23:59;;;;;;;;;;;;;;;;;;5029049;28;1427;-70
2022/07/09 16:26:25;;;;;;;;;;;;;;;;;;5043935;28;1507;-70
2022/07/09 16:28:52;;;;;;;;;;;;;;;;;;5019374;28;1430;-69
2022/07/09 16:31:18;;;;;;;;;;;;;;;;;;5030638;28;1115;-71
2022/07/09 16:33:45;;;;;;;;;;;;;;;;;;5034145;28;1914;-71
2022/07/09 16:36:11;;;;;;;;;;;;;;;;;;5033699;28;837;-70
2022/07/09 16:38:37;;;;;;;;;;;;;;;;;;5034246;28;1052;-70
2022/07/09 16:41:03;;;;;;;;;;;;;;;;;;5034063;28;906;-71
2022/07/09 16:43:30;;;;;;;;;;;;;;;;;;5034226;28;1306;-72
2022/07/09 16:46:07;;;;;;;;;;;;;;;;;;5034199;28;1107;-71
2022/07/09 16:48:35;;;;;;;;;;;;;;;;;;5034093;28;929;-70
2022/07/09 16:51:01;;;;;;;;;;;;;;;;;;5034041;28;778;-71
2022/07/09 16:53:27;;;;;;;;;;;;;;;;;;5033980;28;1906;-71
2022/07/09 16:55:53;;;;;;;;;;;;;;;;;;5033886;28;1096;-70
2022/07/09 16:58:19;;;;;;;;;;;;;;;;;;5033377;28;1052;-70
2022/07/09 17:00:45;;;;;;;;;;;;;;;;;;5033993;28;901;-70
2022/07/09 17:03:15;;;;;;;;;;;;;;;;;;5030903;28;1414;-71
2022/07/09 17:05:42;;;;;;;;;;;;;;;;;;5033758;28;1115;-70